ADDS TAF Board (Experimental) INFO Settings
IDs: Format: Expanded Condensed

KFLL - Ft Lauderdale-Hollyw, FL, US

Issued at 0842 UTC 25 Sep 2016
Updated at 1034 UTC 25 Sep 2016
Time0953Z 25/11Z 25/12Z 25/13Z 25/14Z 25/15Z 25/16Z 25/17Z 25/18Z 25/19Z 25/20Z 25/21Z 25/22Z 25/23Z
Type OBS PRVL PRVL PRVL PRVL PRVL PRVL PRVL PRVL PRVL PRVL PRVL PRVL PRVL
VIS 10 >6 >6 >6 >6 >6 >6 >6 >6 >6 >6 >6 >6 >6
CIG -- 200 200 200 200 200 60 60 60 60 60 60 60 60
Cover SCT BKN BKN BKN BKN BKN BKN BKN BKN BKN BKN BKN BKN BKN
FltCat VFR VFR VFR VFR VFR VFR VFR VFR VFR VFR VFR VFR VFR VFR
WX -- -- -- -- -- -- VCTS VCTS VCTS VCTS VCTS VCTS VCTS VCTS
WDir 330 VRB VRB VRB VRB VRB 80 80 80 80 80 80 80 80
WSpd 3 0 0 0 0 0 10 10 10 10 10 10 10 10
WGst -- -- -- -- -- -- -- -- -- -- -- -- -- --
R10/28
XWnd 3 VRB VRB VRB VRB VRB 2 2 2 2 2 2 2 2
HWnd -2 VRB VRB VRB VRB VRB 10 10 10 10 10 10 10 10

Raw TAF
KFLL 250842Z 2509/2606 00000KT P6SM FEW025 FEW050 BKN200
  FM251200 00000KT P6SM SCT040 BKN200
  FM251600 08010KT P6SM VCTS SCT030CB BKN060 BKN250
  FM260000 00000KT P6SM VCSH SCT040 BKN120


Raw METAR
KFLL 250953Z 33003KT 10SM FEW025 SCT250 24/22 A2997 RMK AO2 SLP147 OCNL LTGIC DSNT E T02390222
KFLL 250853Z 32005KT 10SM FEW025 SCT250 25/23 A2997 RMK AO2 SLP147 OCNL LTGIC DSNT E T02500228 58004
KFLL 250753Z 00000KT 10SM FEW020 BKN250 25/23 A2997 RMK AO2 SLP148 T02500228

METAR Board
Radar Display
Forecast Discussion

TAF Board Legend

Potential Impact
Threat None Slight Moderate High
Visibility (sm) ≥5.1 5.1>X≥3 3>X≥1 <1
Ceiling (100 ft) ≥30.1 30.1>X≥10 10>X≥5 <5
Wind Speed (kt) <10 10≤X<20 20≤X<30 ≥30
Wind Gust (kt) <15 15≤X<25 25≤X<35 ≥35
Weather No Wx Reported VCTS,-TS,-FZRA,SN TS,FZRA +TS,+FZRA,+SN